sensor_id;sensor_type;location;lat;lon;timestamp;temperature;humidity
58405;DHT22;44200;50.732;4.276;2023-11-21T00:02:25;10.70;99.90
58405;DHT22;44200;50.732;4.276;2023-11-21T00:04:50;10.60;99.90
58405;DHT22;44200;50.732;4.276;2023-11-21T00:07:16;10.60;99.90
58405;DHT22;44200;50.732;4.276;2023-11-21T00:09:42;10.60;99.90
58405;DHT22;44200;50.732;4.276;2023-11-21T00:12:08;10.60;99.90
58405;DHT22;44200;50.732;4.276;2023-11-21T00:14:37;10.50;99.90
58405;DHT22;44200;50.732;4.276;2023-11-21T00:17:03;10.40;99.90
58405;DHT22;44200;50.732;4.276;2023-11-21T00:19:29;10.40;99.90
58405;DHT22;44200;50.732;4.276;2023-11-21T00:21:54;10.30;99.90
58405;DHT22;44200;50.732;4.276;2023-11-21T00:24:20;10.20;99.90
58405;DHT22;44200;50.732;4.276;2023-11-21T00:26:45;10.40;99.90
58405;DHT22;44200;50.732;4.276;2023-11-21T00:29:13;10.10;99.90
58405;DHT22;44200;50.732;4.276;2023-11-21T00:31:39;9.90;99.90
58405;DHT22;44200;50.732;4.276;2023-11-21T00:34:05;10.00;99.90
58405;DHT22;44200;50.732;4.276;2023-11-21T00:36:31;10.30;99.90
58405;DHT22;44200;50.732;4.276;2023-11-21T00:38:57;9.80;99.90
58405;DHT22;44200;50.732;4.276;2023-11-21T00:41:23;9.90;99.90
58405;DHT22;44200;50.732;4.276;2023-11-21T00:43:48;9.70;99.90
58405;DHT22;44200;50.732;4.276;2023-11-21T00:46:14;9.80;99.90
58405;DHT22;44200;50.732;4.276;2023-11-21T00:48:39;9.80;99.90
58405;DHT22;44200;50.732;4.276;2023-11-21T00:51:05;9.80;99.90
58405;DHT22;44200;50.732;4.276;2023-11-21T00:53:31;9.80;99.90
58405;DHT22;44200;50.732;4.276;2023-11-21T00:55:57;9.60;99.90
58405;DHT22;44200;50.732;4.276;2023-11-21T00:58:26;9.70;99.90
58405;DHT22;44200;50.732;4.276;2023-11-21T01:00:52;9.80;99.90
58405;DHT22;44200;50.732;4.276;2023-11-21T01:03:18;9.70;99.90
58405;DHT22;44200;50.732;4.276;2023-11-21T01:05:44;9.90;99.90
58405;DHT22;44200;50.732;4.276;2023-11-21T01:08:10;9.90;99.90
58405;DHT22;44200;50.732;4.276;2023-11-21T01:10:36;10.00;99.90
58405;DHT22;44200;50.732;4.276;2023-11-21T01:13:02;9.80;99.90
58405;DHT22;44200;50.732;4.276;2023-11-21T01:15:29;9.60;99.90
58405;DHT22;44200;50.732;4.276;2023-11-21T01:17:55;9.70;99.90
58405;DHT22;44200;50.732;4.276;2023-11-21T01:20:20;9.50;99.90
58405;DHT22;44200;50.732;4.276;2023-11-21T01:22:46;9.60;99.90
58405;DHT22;44200;50.732;4.276;2023-11-21T01:25:13;9.60;99.90
58405;DHT22;44200;50.732;4.276;2023-11-21T01:27:39;9.50;99.90
58405;DHT22;44200;50.732;4.276;2023-11-21T01:30:05;9.70;99.90
58405;DHT22;44200;50.732;4.276;2023-11-21T01:32:33;9.60;99.90
58405;DHT22;44200;50.732;4.276;2023-11-21T01:34:59;9.70;99.90
58405;DHT22;44200;50.732;4.276;2023-11-21T01:37:24;9.80;99.90
58405;DHT22;44200;50.732;4.276;2023-11-21T01:39:56;9.90;99.90
58405;DHT22;44200;50.732;4.276;2023-11-21T01:42:21;10.00;99.90
58405;DHT22;44200;50.732;4.276;2023-11-21T01:44:48;9.80;99.90
58405;DHT22;44200;50.732;4.276;2023-11-21T01:47:14;9.70;99.90
58405;DHT22;44200;50.732;4.276;2023-11-21T01:49:42;9.80;99.90
58405;DHT22;44200;50.732;4.276;2023-11-21T01:52:08;10.00;99.90
58405;DHT22;44200;50.732;4.276;2023-11-21T01:54:36;10.10;99.90
58405;DHT22;44200;50.732;4.276;2023-11-21T01:57:02;10.30;99.90
58405;DHT22;44200;50.732;4.276;2023-11-21T01:59:37;10.20;99.90
58405;DHT22;44200;50.732;4.276;2023-11-21T02:02:04;10.10;99.90
58405;DHT22;44200;50.732;4.276;2023-11-21T02:04:31;10.00;99.90
58405;DHT22;44200;50.732;4.276;2023-11-21T02:06:57;9.70;99.90
58405;DHT22;44200;50.732;4.276;2023-11-21T02:09:25;9.50;99.90
58405;DHT22;44200;50.732;4.276;2023-11-21T02:11:51;9.50;99.90
58405;DHT22;44200;50.732;4.276;2023-11-21T02:14:16;9.50;99.90
58405;DHT22;44200;50.732;4.276;2023-11-21T02:16:45;9.40;99.90
58405;DHT22;44200;50.732;4.276;2023-11-21T02:19:13;9.60;99.90
58405;DHT22;44200;50.732;4.276;2023-11-21T02:21:40;9.60;99.90
58405;DHT22;44200;50.732;4.276;2023-11-21T02:24:06;9.90;99.90
58405;DHT22;44200;50.732;4.276;2023-11-21T02:26:32;10.10;99.90
58405;DHT22;44200;50.732;4.276;2023-11-21T02:28:57;10.40;99.90
58405;DHT22;44200;50.732;4.276;2023-11-21T02:31:23;10.50;99.90
58405;DHT22;44200;50.732;4.276;2023-11-21T02:33:49;10.60;99.90
58405;DHT22;44200;50.732;4.276;2023-11-21T02:36:14;10.60;99.90
58405;DHT22;44200;50.732;4.276;2023-11-21T02:38:40;10.20;99.90
58405;DHT22;44200;50.732;4.276;2023-11-21T02:41:05;10.30;99.90
58405;DHT22;44200;50.732;4.276;2023-11-21T02:43:31;10.50;99.90
58405;DHT22;44200;50.732;4.276;2023-11-21T02:45:56;10.50;99.90
58405;DHT22;44200;50.732;4.276;2023-11-21T02:48:22;10.60;99.90
58405;DHT22;44200;50.732;4.276;2023-11-21T02:50:51;10.80;99.90
58405;DHT22;44200;50.732;4.276;2023-11-21T02:53:18;10.80;99.90
58405;DHT22;44200;50.732;4.276;2023-11-21T02:55:44;10.40;99.90
58405;DHT22;44200;50.732;4.276;2023-11-21T02:58:09;10.50;99.90
58405;DHT22;44200;50.732;4.276;2023-11-21T03:00:35;10.40;99.90
58405;DHT22;44200;50.732;4.276;2023-11-21T03:03:00;10.20;99.90
58405;DHT22;44200;50.732;4.276;2023-11-21T03:05:26;10.30;99.90
58405;DHT22;44200;50.732;4.276;2023-11-21T03:07:51;10.60;99.90
58405;DHT22;44200;50.732;4.276;2023-11-21T03:10:17;10.90;99.90
58405;DHT22;44200;50.732;4.276;2023-11-21T03:12:42;11.20;99.90
58405;DHT22;44200;50.732;4.276;2023-11-21T03:15:09;11.10;99.90
58405;DHT22;44200;50.732;4.276;2023-11-21T03:17:35;11.00;99.90
58405;DHT22;44200;50.732;4.276;2023-11-21T03:20:01;10.80;99.90
58405;DHT22;44200;50.732;4.276;2023-11-21T03:22:26;10.80;99.90
58405;DHT22;44200;50.732;4.276;2023-11-21T03:24:52;10.80;99.90
58405;DHT22;44200;50.732;4.276;2023-11-21T03:27:20;10.80;99.90
58405;DHT22;44200;50.732;4.276;2023-11-21T03:29:46;10.80;99.90
58405;DHT22;44200;50.732;4.276;2023-11-21T03:32:12;10.90;99.90
58405;DHT22;44200;50.732;4.276;2023-11-21T03:34:52;10.90;99.90
58405;DHT22;44200;50.732;4.276;2023-11-21T03:37:18;10.90;99.90
58405;DHT22;44200;50.732;4.276;2023-11-21T03:39:46;11.00;99.90
58405;DHT22;44200;50.732;4.276;2023-11-21T03:42:12;10.80;99.90
58405;DHT22;44200;50.732;4.276;2023-11-21T03:44:37;10.70;99.90
58405;DHT22;44200;50.732;4.276;2023-11-21T03:47:03;10.70;99.90
58405;DHT22;44200;50.732;4.276;2023-11-21T03:49:29;10.80;99.90
58405;DHT22;44200;50.732;4.276;2023-11-21T03:51:55;10.70;99.90
58405;DHT22;44200;50.732;4.276;2023-11-21T03:54:21;10.70;99.90
58405;DHT22;44200;50.732;4.276;2023-11-21T03:56:46;10.70;99.90
58405;DHT22;44200;50.732;4.276;2023-11-21T03:59:12;10.50;99.90
58405;DHT22;44200;50.732;4.276;2023-11-21T04:01:38;10.40;99.90
58405;DHT22;44200;50.732;4.276;2023-11-21T04:04:03;10.40;99.90
58405;DHT22;44200;50.732;4.276;2023-11-21T04:06:29;10.50;99.90
58405;DHT22;44200;50.732;4.276;2023-11-21T04:08:55;10.30;99.90
58405;DHT22;44200;50.732;4.276;2023-11-21T04:11:20;10.40;99.90
58405;DHT22;44200;50.732;4.276;2023-11-21T04:13:46;10.40;99.90
58405;DHT22;44200;50.732;4.276;2023-11-21T04:16:12;10.50;99.90
58405;DHT22;44200;50.732;4.276;2023-11-21T04:18:38;10.40;99.90
58405;DHT22;44200;50.732;4.276;2023-11-21T04:21:04;10.40;99.90
58405;DHT22;44200;50.732;4.276;2023-11-21T04:23:30;10.60;99.90
58405;DHT22;44200;50.732;4.276;2023-11-21T04:25:59;10.30;99.90
58405;DHT22;44200;50.732;4.276;2023-11-21T04:28:24;10.40;99.90
58405;DHT22;44200;50.732;4.276;2023-11-21T04:30:50;10.60;99.90
58405;DHT22;44200;50.732;4.276;2023-11-21T04:33:16;10.50;99.90
58405;DHT22;44200;50.732;4.276;2023-11-21T04:35:41;10.60;99.90
58405;DHT22;44200;50.732;4.276;2023-11-21T04:38:07;10.40;99.90
58405;DHT22;44200;50.732;4.276;2023-11-21T04:40:32;10.50;99.90
58405;DHT22;44200;50.732;4.276;2023-11-21T04:42:58;10.70;99.90
58405;DHT22;44200;50.732;4.276;2023-11-21T04:45:23;10.50;99.90
58405;DHT22;44200;50.732;4.276;2023-11-21T04:47:49;10.30;99.90
58405;DHT22;44200;50.732;4.276;2023-11-21T04:50:14;10.30;99.90
58405;DHT22;44200;50.732;4.276;2023-11-21T04:52:40;10.20;99.90
58405;DHT22;44200;50.732;4.276;2023-11-21T04:55:06;10.30;99.90
58405;DHT22;44200;50.732;4.276;2023-11-21T04:57:35;10.30;99.90
58405;DHT22;44200;50.732;4.276;2023-11-21T05:00:01;10.00;99.90
58405;DHT22;44200;50.732;4.276;2023-11-21T05:02:26;9.90;99.90
58405;DHT22;44200;50.732;4.276;2023-11-21T05:04:52;9.80;99.90
58405;DHT22;44200;50.732;4.276;2023-11-21T05:07:18;9.70;99.90
58405;DHT22;44200;50.732;4.276;2023-11-21T05:09:44;9.90;99.90
58405;DHT22;44200;50.732;4.276;2023-11-21T05:12:11;10.00;99.90
58405;DHT22;44200;50.732;4.276;2023-11-21T05:14:37;10.00;99.90
58405;DHT22;44200;50.732;4.276;2023-11-21T05:17:03;10.20;99.90
58405;DHT22;44200;50.732;4.276;2023-11-21T05:19:29;10.30;99.90
58405;DHT22;44200;50.732;4.276;2023-11-21T05:21:55;10.20;99.90
58405;DHT22;44200;50.732;4.276;2023-11-21T05:24:20;10.10;99.90
58405;DHT22;44200;50.732;4.276;2023-11-21T05:26:46;10.10;99.90
58405;DHT22;44200;50.732;4.276;2023-11-21T05:29:11;10.00;99.90
58405;DHT22;44200;50.732;4.276;2023-11-21T05:31:37;10.00;99.90
58405;DHT22;44200;50.732;4.276;2023-11-21T05:34:03;9.90;99.90
58405;DHT22;44200;50.732;4.276;2023-11-21T05:36:30;9.80;99.90
58405;DHT22;44200;50.732;4.276;2023-11-21T05:38:56;9.90;99.90
58405;DHT22;44200;50.732;4.276;2023-11-21T05:41:21;10.00;99.90
58405;DHT22;44200;50.732;4.276;2023-11-21T05:43:47;9.80;99.90
58405;DHT22;44200;50.732;4.276;2023-11-21T05:46:12;9.80;99.90
58405;DHT22;44200;50.732;4.276;2023-11-21T05:48:38;9.70;99.90
58405;DHT22;44200;50.732;4.276;2023-11-21T05:51:06;9.80;99.90
58405;DHT22;44200;50.732;4.276;2023-11-21T05:53:32;9.70;99.90
58405;DHT22;44200;50.732;4.276;2023-11-21T05:55:58;9.50;99.90
58405;DHT22;44200;50.732;4.276;2023-11-21T05:58:23;9.60;99.90
58405;DHT22;44200;50.732;4.276;2023-11-21T06:00:49;9.80;99.90
58405;DHT22;44200;50.732;4.276;2023-11-21T06:03:14;9.70;99.90
58405;DHT22;44200;50.732;4.276;2023-11-21T06:05:40;9.80;99.90
58405;DHT22;44200;50.732;4.276;2023-11-21T06:08:05;9.80;99.90
58405;DHT22;44200;50.732;4.276;2023-11-21T06:10:32;9.90;99.90
58405;DHT22;44200;50.732;4.276;2023-11-21T06:12:58;9.70;99.90
58405;DHT22;44200;50.732;4.276;2023-11-21T06:15:23;9.80;99.90
58405;DHT22;44200;50.732;4.276;2023-11-21T06:17:49;10.00;99.90
58405;DHT22;44200;50.732;4.276;2023-11-21T06:20:18;9.80;99.90
58405;DHT22;44200;50.732;4.276;2023-11-21T06:22:45;9.90;99.90
58405;DHT22;44200;50.732;4.276;2023-11-21T06:25:11;10.20;99.90
58405;DHT22;44200;50.732;4.276;2023-11-21T06:27:39;9.90;99.90
58405;DHT22;44200;50.732;4.276;2023-11-21T06:30:05;9.90;99.90
58405;DHT22;44200;50.732;4.276;2023-11-21T06:32:32;9.90;99.90
58405;DHT22;44200;50.732;4.276;2023-11-21T06:34:58;9.90;99.90
58405;DHT22;44200;50.732;4.276;2023-11-21T06:37:26;9.80;99.90
58405;DHT22;44200;50.732;4.276;2023-11-21T06:39:52;9.90;99.90
58405;DHT22;44200;50.732;4.276;2023-11-21T06:42:18;10.10;99.90
58405;DHT22;44200;50.732;4.276;2023-11-21T06:44:47;10.30;99.90
58405;DHT22;44200;50.732;4.276;2023-11-21T06:47:13;10.20;99.90
58405;DHT22;44200;50.732;4.276;2023-11-21T06:49:39;10.10;99.90
58405;DHT22;44200;50.732;4.276;2023-11-21T06:52:05;10.10;99.90
58405;DHT22;44200;50.732;4.276;2023-11-21T06:54:31;10.10;99.90
58405;DHT22;44200;50.732;4.276;2023-11-21T06:56:57;10.20;99.90
58405;DHT22;44200;50.732;4.276;2023-11-21T06:59:22;10.00;99.90
58405;DHT22;44200;50.732;4.276;2023-11-21T07:01:49;10.00;99.90
58405;DHT22;44200;50.732;4.276;2023-11-21T07:04:14;9.90;99.90
58405;DHT22;44200;50.732;4.276;2023-11-21T07:06:40;9.80;99.90
58405;DHT22;44200;50.732;4.276;2023-11-21T07:09:06;9.90;99.90
58405;DHT22;44200;50.732;4.276;2023-11-21T07:11:34;10.20;99.90
58405;DHT22;44200;50.732;4.276;2023-11-21T07:13:59;10.50;99.90
58405;DHT22;44200;50.732;4.276;2023-11-21T07:16:25;10.80;99.90
58405;DHT22;44200;50.732;4.276;2023-11-21T07:18:52;10.60;99.90
58405;DHT22;44200;50.732;4.276;2023-11-21T07:21:17;10.40;99.90
58405;DHT22;44200;50.732;4.276;2023-11-21T07:23:43;10.40;99.90
58405;DHT22;44200;50.732;4.276;2023-11-21T07:26:09;10.30;99.90
58405;DHT22;44200;50.732;4.276;2023-11-21T07:28:36;10.40;99.90
58405;DHT22;44200;50.732;4.276;2023-11-21T07:31:02;10.80;99.90
58405;DHT22;44200;50.732;4.276;2023-11-21T07:33:28;10.70;99.90
58405;DHT22;44200;50.732;4.276;2023-11-21T07:35:54;10.90;99.90
58405;DHT22;44200;50.732;4.276;2023-11-21T07:38:19;11.00;99.90
58405;DHT22;44200;50.732;4.276;2023-11-21T07:40:45;11.20;99.90
58405;DHT22;44200;50.732;4.276;2023-11-21T07:43:10;11.30;99.90
58405;DHT22;44200;50.732;4.276;2023-11-21T07:45:36;11.30;99.90
58405;DHT22;44200;50.732;4.276;2023-11-21T07:48:02;11.50;99.90
58405;DHT22;44200;50.732;4.276;2023-11-21T07:50:29;11.40;99.90
58405;DHT22;44200;50.732;4.276;2023-11-21T07:52:54;11.20;99.90
58405;DHT22;44200;50.732;4.276;2023-11-21T07:55:20;11.20;99.90
58405;DHT22;44200;50.732;4.276;2023-11-21T07:57:46;11.10;99.90
58405;DHT22;44200;50.732;4.276;2023-11-21T08:00:12;11.20;99.90
58405;DHT22;44200;50.732;4.276;2023-11-21T08:02:41;11.10;99.90
58405;DHT22;44200;50.732;4.276;2023-11-21T08:05:11;11.30;99.90
58405;DHT22;44200;50.732;4.276;2023-11-21T08:07:37;11.30;99.90
58405;DHT22;44200;50.732;4.276;2023-11-21T08:10:03;11.50;99.90
58405;DHT22;44200;50.732;4.276;2023-11-21T08:12:30;11.60;99.90
58405;DHT22;44200;50.732;4.276;2023-11-21T08:14:56;11.40;99.90
58405;DHT22;44200;50.732;4.276;2023-11-21T08:17:21;11.30;99.90
58405;DHT22;44200;50.732;4.276;2023-11-21T08:19:47;11.50;99.90
58405;DHT22;44200;50.732;4.276;2023-11-21T08:22:17;11.10;99.90
58405;DHT22;44200;50.732;4.276;2023-11-21T08:24:43;11.00;99.90
58405;DHT22;44200;50.732;4.276;2023-11-21T08:27:09;10.70;99.90
58405;DHT22;44200;50.732;4.276;2023-11-21T08:29:35;10.60;99.90
58405;DHT22;44200;50.732;4.276;2023-11-21T08:32:02;10.60;99.90
58405;DHT22;44200;50.732;4.276;2023-11-21T08:34:27;10.90;99.90
58405;DHT22;44200;50.732;4.276;2023-11-21T08:36:54;11.00;99.90
58405;DHT22;44200;50.732;4.276;2023-11-21T08:39:19;11.20;99.90
58405;DHT22;44200;50.732;4.276;2023-11-21T08:41:45;11.40;99.90
58405;DHT22;44200;50.732;4.276;2023-11-21T08:44:11;11.40;99.90
58405;DHT22;44200;50.732;4.276;2023-11-21T08:46:36;11.60;99.90
58405;DHT22;44200;50.732;4.276;2023-11-21T08:49:03;11.30;99.90
58405;DHT22;44200;50.732;4.276;2023-11-21T08:51:28;11.40;99.90
58405;DHT22;44200;50.732;4.276;2023-11-21T08:53:54;11.20;99.90
58405;DHT22;44200;50.732;4.276;2023-11-21T08:56:20;11.30;99.90
58405;DHT22;44200;50.732;4.276;2023-11-21T08:58:46;11.30;99.90
58405;DHT22;44200;50.732;4.276;2023-11-21T09:01:12;11.30;99.90
58405;DHT22;44200;50.732;4.276;2023-11-21T09:03:38;11.00;99.90
58405;DHT22;44200;50.732;4.276;2023-11-21T09:06:03;11.20;99.90
58405;DHT22;44200;50.732;4.276;2023-11-21T09:08:29;11.30;99.90
58405;DHT22;44200;50.732;4.276;2023-11-21T09:10:55;10.90;99.90
58405;DHT22;44200;50.732;4.276;2023-11-21T09:13:21;10.80;99.90
58405;DHT22;44200;50.732;4.276;2023-11-21T09:15:46;11.00;99.90
58405;DHT22;44200;50.732;4.276;2023-11-21T09:18:13;11.30;99.90
58405;DHT22;44200;50.732;4.276;2023-11-21T09:20:38;11.40;99.90
58405;DHT22;44200;50.732;4.276;2023-11-21T09:23:04;11.60;99.90
58405;DHT22;44200;50.732;4.276;2023-11-21T09:25:29;11.70;99.90
58405;DHT22;44200;50.732;4.276;2023-11-21T09:27:55;11.90;99.90
58405;DHT22;44200;50.732;4.276;2023-11-21T09:30:22;11.80;99.90
58405;DHT22;44200;50.732;4.276;2023-11-21T09:32:50;11.70;99.90
58405;DHT22;44200;50.732;4.276;2023-11-21T09:35:15;11.90;99.90
58405;DHT22;44200;50.732;4.276;2023-11-21T09:37:45;12.10;99.90
58405;DHT22;44200;50.732;4.276;2023-11-21T09:40:11;12.20;99.90
58405;DHT22;44200;50.732;4.276;2023-11-21T09:43:13;12.30;99.90
58405;DHT22;44200;50.732;4.276;2023-11-21T09:45:32;12.50;99.90
58405;DHT22;44200;50.732;4.276;2023-11-21T09:47:59;12.50;99.90
58405;DHT22;44200;50.732;4.276;2023-11-21T09:50:26;12.50;99.90
58405;DHT22;44200;50.732;4.276;2023-11-21T09:52:54;12.30;99.90
58405;DHT22;44200;50.732;4.276;2023-11-21T09:55:20;12.20;99.90
58405;DHT22;44200;50.732;4.276;2023-11-21T09:57:47;12.20;99.90
58405;DHT22;44200;50.732;4.276;2023-11-21T10:00:14;12.40;99.90
58405;DHT22;44200;50.732;4.276;2023-11-21T10:02:42;12.30;99.90
58405;DHT22;44200;50.732;4.276;2023-11-21T10:05:08;12.40;99.90
58405;DHT22;44200;50.732;4.276;2023-11-21T10:07:37;12.40;99.90
58405;DHT22;44200;50.732;4.276;2023-11-21T10:10:05;12.50;99.90
58405;DHT22;44200;50.732;4.276;2023-11-21T10:12:31;12.60;99.90
58405;DHT22;44200;50.732;4.276;2023-11-21T10:14:57;12.80;99.90
58405;DHT22;44200;50.732;4.276;2023-11-21T10:17:23;12.60;99.90
58405;DHT22;44200;50.732;4.276;2023-11-21T10:19:51;12.30;99.90
58405;DHT22;44200;50.732;4.276;2023-11-21T10:22:19;11.70;99.90
58405;DHT22;44200;50.732;4.276;2023-11-21T10:24:45;11.30;99.90
58405;DHT22;44200;50.732;4.276;2023-11-21T10:27:11;11.30;99.90
58405;DHT22;44200;50.732;4.276;2023-11-21T10:29:41;11.50;99.90
58405;DHT22;44200;50.732;4.276;2023-11-21T10:32:07;11.20;99.90
58405;DHT22;44200;50.732;4.276;2023-11-21T10:34:32;11.00;99.90
58405;DHT22;44200;50.732;4.276;2023-11-21T10:36:58;11.10;99.90
58405;DHT22;44200;50.732;4.276;2023-11-21T10:39:24;11.50;99.90
58405;DHT22;44200;50.732;4.276;2023-11-21T10:41:53;11.20;99.90
58405;DHT22;44200;50.732;4.276;2023-11-21T10:44:21;11.40;99.90
58405;DHT22;44200;50.732;4.276;2023-11-21T10:46:48;11.40;99.90
58405;DHT22;44200;50.732;4.276;2023-11-21T10:49:19;11.80;99.90
58405;DHT22;44200;50.732;4.276;2023-11-21T10:51:45;12.10;99.90
58405;DHT22;44200;50.732;4.276;2023-11-21T10:54:10;11.90;99.90
58405;DHT22;44200;50.732;4.276;2023-11-21T10:56:39;11.60;99.90
58405;DHT22;44200;50.732;4.276;2023-11-21T10:59:12;11.80;99.90
58405;DHT22;44200;50.732;4.276;2023-11-21T11:01:44;11.50;99.90
58405;DHT22;44200;50.732;4.276;2023-11-21T11:04:11;11.70;99.90
58405;DHT22;44200;50.732;4.276;2023-11-21T11:06:51;11.40;99.90
58405;DHT22;44200;50.732;4.276;2023-11-21T11:09:19;11.10;99.90
58405;DHT22;44200;50.732;4.276;2023-11-21T11:11:45;11.30;99.90
58405;DHT22;44200;50.732;4.276;2023-11-21T11:14:11;11.50;99.90
58405;DHT22;44200;50.732;4.276;2023-11-21T11:16:38;11.70;99.90
58405;DHT22;44200;50.732;4.276;2023-11-21T11:19:09;12.00;99.90
58405;DHT22;44200;50.732;4.276;2023-11-21T11:27:01;11.50;99.90
58405;DHT22;44200;50.732;4.276;2023-11-21T11:29:42;11.70;99.90
58405;DHT22;44200;50.732;4.276;2023-11-21T11:34:41;11.20;99.90
58405;DHT22;44200;50.732;4.276;2023-11-21T11:37:09;11.10;99.90
58405;DHT22;44200;50.732;4.276;2023-11-21T11:39:39;11.00;99.90
58405;DHT22;44200;50.732;4.276;2023-11-21T11:42:13;11.00;99.90
58405;DHT22;44200;50.732;4.276;2023-11-21T11:44:46;11.20;99.90
58405;DHT22;44200;50.732;4.276;2023-11-21T11:47:15;11.40;99.90
58405;DHT22;44200;50.732;4.276;2023-11-21T11:49:57;11.20;99.90
58405;DHT22;44200;50.732;4.276;2023-11-21T11:52:33;11.10;99.90
58405;DHT22;44200;50.732;4.276;2023-11-21T11:55:00;11.00;99.90
58405;DHT22;44200;50.732;4.276;2023-11-21T11:57:25;11.10;99.90
58405;DHT22;44200;50.732;4.276;2023-11-21T12:00:10;11.20;99.90
58405;DHT22;44200;50.732;4.276;2023-11-21T12:02:50;11.20;99.90
58405;DHT22;44200;50.732;4.276;2023-11-21T12:05:17;11.20;99.90
58405;DHT22;44200;50.732;4.276;2023-11-21T12:10:15;11.20;99.90
58405;DHT22;44200;50.732;4.276;2023-11-21T12:12:49;11.20;99.90
58405;DHT22;44200;50.732;4.276;2023-11-21T12:15:15;11.30;99.90
58405;DHT22;44200;50.732;4.276;2023-11-21T12:17:41;11.10;99.90
58405;DHT22;44200;50.732;4.276;2023-11-21T12:20:07;11.30;99.90
58405;DHT22;44200;50.732;4.276;2023-11-21T12:22:46;11.60;99.90
58405;DHT22;44200;50.732;4.276;2023-11-21T12:25:15;11.60;99.90
58405;DHT22;44200;50.732;4.276;2023-11-21T12:27:50;11.30;99.90
58405;DHT22;44200;50.732;4.276;2023-11-21T12:30:17;11.20;99.90
58405;DHT22;44200;50.732;4.276;2023-11-21T12:32:47;10.90;99.90
58405;DHT22;44200;50.732;4.276;2023-11-21T12:35:13;10.90;99.90
58405;DHT22;44200;50.732;4.276;2023-11-21T12:37:40;10.70;99.90
58405;DHT22;44200;50.732;4.276;2023-11-21T12:40:06;10.80;99.90
58405;DHT22;44200;50.732;4.276;2023-11-21T12:42:33;10.90;99.90
58405;DHT22;44200;50.732;4.276;2023-11-21T12:45:32;11.00;99.90
58405;DHT22;44200;50.732;4.276;2023-11-21T12:47:51;11.20;99.90
58405;DHT22;44200;50.732;4.276;2023-11-21T12:50:21;11.50;99.90
58405;DHT22;44200;50.732;4.276;2023-11-21T12:52:51;11.60;99.90
58405;DHT22;44200;50.732;4.276;2023-11-21T12:55:21;11.70;99.90
58405;DHT22;44200;50.732;4.276;2023-11-21T12:57:48;11.90;99.90
58405;DHT22;44200;50.732;4.276;2023-11-21T13:00:15;11.30;99.90
58405;DHT22;44200;50.732;4.276;2023-11-21T13:02:52;11.10;99.90
58405;DHT22;44200;50.732;4.276;2023-11-21T13:05:27;11.20;99.90
58405;DHT22;44200;50.732;4.276;2023-11-21T13:07:53;11.10;99.90
58405;DHT22;44200;50.732;4.276;2023-11-21T13:10:22;11.30;99.90
58405;DHT22;44200;50.732;4.276;2023-11-21T13:12:51;11.60;99.90
58405;DHT22;44200;50.732;4.276;2023-11-21T13:15:17;11.40;99.90
58405;DHT22;44200;50.732;4.276;2023-11-21T13:17:44;11.10;99.90
58405;DHT22;44200;50.732;4.276;2023-11-21T13:20:11;11.10;99.90
58405;DHT22;44200;50.732;4.276;2023-11-21T13:22:50;11.40;99.90
58405;DHT22;44200;50.732;4.276;2023-11-21T13:25:20;11.40;99.90
58405;DHT22;44200;50.732;4.276;2023-11-21T13:27:46;11.40;99.90
58405;DHT22;44200;50.732;4.276;2023-11-21T13:30:14;11.20;99.90
58405;DHT22;44200;50.732;4.276;2023-11-21T13:32:48;11.00;99.90
58405;DHT22;44200;50.732;4.276;2023-11-21T13:35:17;11.20;99.90
58405;DHT22;44200;50.732;4.276;2023-11-21T13:37:51;11.00;99.90
58405;DHT22;44200;50.732;4.276;2023-11-21T13:40:21;11.30;99.90
58405;DHT22;44200;50.732;4.276;2023-11-21T13:42:53;11.20;99.90
58405;DHT22;44200;50.732;4.276;2023-11-21T13:45:23;11.50;99.90
58405;DHT22;44200;50.732;4.276;2023-11-21T13:47:49;11.70;99.90
58405;DHT22;44200;50.732;4.276;2023-11-21T13:50:17;11.70;99.90
58405;DHT22;44200;50.732;4.276;2023-11-21T13:52:48;11.70;99.90
58405;DHT22;44200;50.732;4.276;2023-11-21T13:55:14;11.50;99.90
58405;DHT22;44200;50.732;4.276;2023-11-21T13:57:42;11.10;99.90
58405;DHT22;44200;50.732;4.276;2023-11-21T14:00:15;11.20;99.90
58405;DHT22;44200;50.732;4.276;2023-11-21T14:03:00;11.00;99.90
58405;DHT22;44200;50.732;4.276;2023-11-21T14:05:27;11.00;99.90
58405;DHT22;44200;50.732;4.276;2023-11-21T14:07:56;11.00;99.90
58405;DHT22;44200;50.732;4.276;2023-11-21T14:10:27;10.90;99.90
58405;DHT22;44200;50.732;4.276;2023-11-21T14:13:02;10.90;99.90
58405;DHT22;44200;50.732;4.276;2023-11-21T14:15:28;10.90;99.90
58405;DHT22;44200;50.732;4.276;2023-11-21T14:17:54;11.00;99.90
58405;DHT22;44200;50.732;4.276;2023-11-21T14:20:20;11.30;99.90
58405;DHT22;44200;50.732;4.276;2023-11-21T14:22:46;11.30;99.90
58405;DHT22;44200;50.732;4.276;2023-11-21T14:25:12;11.20;99.90
58405;DHT22;44200;50.732;4.276;2023-11-21T14:27:39;11.20;99.90
58405;DHT22;44200;50.732;4.276;2023-11-21T14:30:05;10.90;99.90
58405;DHT22;44200;50.732;4.276;2023-11-21T14:32:31;10.90;99.90
58405;DHT22;44200;50.732;4.276;2023-11-21T14:34:57;11.00;99.90
58405;DHT22;44200;50.732;4.276;2023-11-21T14:37:23;10.70;99.90
58405;DHT22;44200;50.732;4.276;2023-11-21T14:39:49;10.90;99.90
58405;DHT22;44200;50.732;4.276;2023-11-21T14:42:15;10.90;99.90
58405;DHT22;44200;50.732;4.276;2023-11-21T14:44:41;10.70;99.90
58405;DHT22;44200;50.732;4.276;2023-11-21T14:47:09;10.90;99.90
58405;DHT22;44200;50.732;4.276;2023-11-21T14:49:43;10.90;99.90
58405;DHT22;44200;50.732;4.276;2023-11-21T14:52:21;10.90;99.90
58405;DHT22;44200;50.732;4.276;2023-11-21T14:54:56;11.10;99.90
58405;DHT22;44200;50.732;4.276;2023-11-21T14:57:41;11.20;99.90
58405;DHT22;44200;50.732;4.276;2023-11-21T15:00:12;10.80;99.90
58405;DHT22;44200;50.732;4.276;2023-11-21T15:02:56;10.60;99.90
58405;DHT22;44200;50.732;4.276;2023-11-21T15:05:22;10.70;99.90
58405;DHT22;44200;50.732;4.276;2023-11-21T15:07:49;10.60;99.90
58405;DHT22;44200;50.732;4.276;2023-11-21T15:10:15;10.70;99.90
58405;DHT22;44200;50.732;4.276;2023-11-21T15:12:41;10.50;99.90
58405;DHT22;44200;50.732;4.276;2023-11-21T15:15:08;10.50;99.90
58405;DHT22;44200;50.732;4.276;2023-11-21T15:17:35;10.80;99.90
58405;DHT22;44200;50.732;4.276;2023-11-21T15:20:01;10.80;99.90
58405;DHT22;44200;50.732;4.276;2023-11-21T15:22:29;10.80;99.90
58405;DHT22;44200;50.732;4.276;2023-11-21T15:24:56;10.60;99.90
58405;DHT22;44200;50.732;4.276;2023-11-21T15:27:23;10.50;99.90
58405;DHT22;44200;50.732;4.276;2023-11-21T15:29:50;10.30;99.90
58405;DHT22;44200;50.732;4.276;2023-11-21T15:32:15;10.20;99.90
58405;DHT22;44200;50.732;4.276;2023-11-21T15:34:41;10.20;99.90
58405;DHT22;44200;50.732;4.276;2023-11-21T15:37:07;10.20;99.90
58405;DHT22;44200;50.732;4.276;2023-11-21T15:39:36;10.30;99.90
58405;DHT22;44200;50.732;4.276;2023-11-21T15:42:03;10.30;99.90
58405;DHT22;44200;50.732;4.276;2023-11-21T15:44:30;10.20;99.90